Terminal Aerodrome Forecast
Issued by NWS

Home | Current Version | Previous Version | Text Only | Print | Product List | Glossary On
Versions: 1 2 3 4 5 6 7 8 9 10 11 12 13 14 15 16 17 18 19 20 21 22 23 24 25 26 27 28 29 30 31 32
000
FTUS45 KSLC 211120
TAFLGU
TAF
KLGU 211120Z 2112/2212 VRB03KT P6SM BKN120
     FM211200 VRB03KT P6SM BKN100
     FM211800 VRB05KT P6SM OVC080
      TEMPO 2118/2122 -SHRA OVC050=

USA.gov is the U.S. government's official web portal to all federal, state and local government web resources and services.